createdAt,value
2018-04-30T00:00:05.810Z,6.03
2018-04-30T00:02:38.503Z,6.27
2018-04-30T00:05:11.159Z,6.63
2018-04-30T00:07:43.761Z,5.93
2018-04-30T00:10:17.152Z,7.07
2018-04-30T00:12:49.792Z,6.47
2018-04-30T00:15:22.538Z,6.50
2018-04-30T00:17:55.184Z,6.20
2018-04-30T00:20:27.835Z,6.80
2018-04-30T00:23:00.444Z,6.27
2018-04-30T00:25:33.080Z,6.87
2018-04-30T00:28:05.684Z,6.87
2018-04-30T00:30:38.335Z,6.50
2018-04-30T00:33:10.968Z,7.70
2018-04-30T00:35:43.607Z,7.17
2018-04-30T00:38:16.215Z,7.93
2018-04-30T00:40:48.851Z,7.30
2018-04-30T00:43:21.457Z,7.33
2018-04-30T00:45:54.089Z,7.10
2018-04-30T00:48:26.701Z,7.67
2018-04-30T00:50:59.323Z,7.57
2018-04-30T00:53:31.939Z,7.80
2018-04-30T00:56:05.361Z,7.30
2018-04-30T00:58:37.959Z,7.87
2018-04-30T01:01:10.584Z,8.40
2018-04-30T01:03:43.192Z,8.27
2018-04-30T01:06:15.852Z,8.10
2018-04-30T01:08:48.456Z,7.97
2018-04-30T01:11:21.108Z,8.00
2018-04-30T01:13:54.477Z,8.00
2018-04-30T01:16:27.103Z,8.20
2018-04-30T01:18:59.703Z,8.37
2018-04-30T01:21:32.342Z,8.27
2018-04-30T01:24:04.956Z,8.17
2018-04-30T01:26:38.367Z,8.50
2018-04-30T01:29:10.984Z,8.33
2018-04-30T01:31:43.625Z,8.27
2018-04-30T01:34:16.287Z,8.37
2018-04-30T01:36:48.928Z,8.80
2018-04-30T01:39:21.536Z,8.80
2018-04-30T01:41:54.156Z,8.43
2018-04-30T01:44:26.751Z,8.77
2018-04-30T01:46:59.367Z,8.70
2018-04-30T01:49:31.963Z,9.03
2018-04-30T01:52:04.600Z,8.80
2018-04-30T01:54:37.210Z,9.47
2018-04-30T01:57:09.852Z,7.80
2018-04-30T01:59:42.460Z,8.20
2018-04-30T02:02:15.848Z,8.77
2018-04-30T02:04:48.448Z,8.53
2018-04-30T02:07:21.097Z,8.63
2018-04-30T02:09:53.707Z,9.20
2018-04-30T02:12:26.341Z,8.40
2018-04-30T02:14:58.941Z,8.80
2018-04-30T02:17:31.591Z,9.20
2018-04-30T02:20:04.200Z,8.60
2018-04-30T02:22:36.816Z,9.00
2018-04-30T02:25:10.188Z,8.93
2018-04-30T02:27:42.829Z,8.77
2018-04-30T02:30:15.427Z,8.73
2018-04-30T02:32:48.083Z,8.57
2018-04-30T02:35:20.688Z,8.50
2018-04-30T02:37:53.341Z,9.27
2018-04-30T02:40:25.971Z,8.37
2018-04-30T02:42:58.622Z,8.60
2018-04-30T02:45:31.233Z,8.83
2018-04-30T02:48:03.908Z,8.67
2018-04-30T02:50:36.516Z,8.93
2018-04-30T02:53:09.146Z,8.47
2018-04-30T02:55:41.751Z,7.80
2018-04-30T02:58:14.387Z,8.27
2018-04-30T03:00:47.747Z,8.27
2018-04-30T03:03:20.371Z,8.17
2018-04-30T03:05:52.966Z,7.77
2018-04-30T03:08:25.617Z,8.23
2018-04-30T03:10:58.213Z,7.50
2018-04-30T03:13:32.312Z,8.73
2018-04-30T03:16:04.920Z,8.10
2018-04-30T03:18:37.579Z,8.30
2018-04-30T03:21:10.959Z,7.90
2018-04-30T03:23:43.591Z,7.70
2018-04-30T03:26:16.954Z,7.83
2018-04-30T03:28:49.608Z,7.67
2018-04-30T03:31:22.213Z,7.10
2018-04-30T03:33:54.840Z,7.50
2018-04-30T03:36:27.435Z,7.43
2018-04-30T03:39:00.079Z,8.10
2018-04-30T03:41:32.687Z,8.07
2018-04-30T03:44:05.302Z,7.27
2018-04-30T03:46:37.904Z,7.27
2018-04-30T03:49:10.550Z,6.90
2018-04-30T03:51:43.153Z,7.30
2018-04-30T03:54:15.787Z,7.13
2018-04-30T03:56:48.383Z,6.67
2018-04-30T03:59:21.048Z,7.43
2018-04-30T04:02:05.580Z,7.03
2018-04-30T04:04:50.048Z,6.73
2018-04-30T04:07:22.655Z,7.03
2018-04-30T04:09:55.293Z,6.90
2018-04-30T04:12:27.899Z,6.30
2018-04-30T04:15:01.291Z,6.43
2018-04-30T04:17:33.891Z,7.23
2018-04-30T04:20:06.509Z,6.73
2018-04-30T04:22:39.120Z,6.97
2018-04-30T04:25:11.742Z,7.20
2018-04-30T04:27:44.343Z,7.27
2018-04-30T04:30:16.958Z,6.80
2018-04-30T04:32:50.324Z,6.87
2018-04-30T04:35:22.938Z,6.97
2018-04-30T04:37:55.538Z,6.97
2018-04-30T04:40:28.155Z,7.07
2018-04-30T04:43:00.763Z,6.50
2018-04-30T04:45:33.391Z,7.40
2018-04-30T04:48:05.990Z,6.37
2018-04-30T04:50:38.679Z,6.77
2018-04-30T04:53:12.112Z,7.00
2018-04-30T04:55:45.495Z,7.37
2018-04-30T04:58:18.118Z,6.40
2018-04-30T05:00:51.544Z,6.60
2018-04-30T05:03:24.160Z,7.10
2018-04-30T05:05:56.796Z,6.43
2018-04-30T05:08:31.211Z,6.70
2018-04-30T05:11:03.845Z,6.57
2018-04-30T05:13:36.456Z,6.87
2018-04-30T05:16:09.119Z,6.80
2018-04-30T05:18:41.732Z,7.63
2018-04-30T05:21:14.377Z,6.97
2018-04-30T05:23:47.019Z,7.03
2018-04-30T05:26:19.644Z,6.97
2018-04-30T05:28:52.259Z,7.13
2018-04-30T05:31:24.879Z,7.13
2018-04-30T05:33:57.521Z,6.50
2018-04-30T05:36:30.476Z,7.07
2018-04-30T05:39:03.072Z,6.93
2018-04-30T05:41:35.683Z,6.87
2018-04-30T05:44:08.289Z,6.63
2018-04-30T05:46:40.926Z,7.27
2018-04-30T05:49:14.285Z,7.10
2018-04-30T05:51:46.957Z,7.43
2018-04-30T05:54:19.549Z,6.57
2018-04-30T05:56:52.171Z,6.80
2018-04-30T05:59:24.763Z,7.50
2018-04-30T06:01:57.394Z,7.70
2018-04-30T06:04:31.752Z,7.40
2018-04-30T06:07:04.379Z,7.47
2018-04-30T06:09:36.983Z,7.43
2018-04-30T06:12:09.697Z,7.87
2018-04-30T06:14:42.236Z,7.17
2018-04-30T06:17:15.609Z,7.50
2018-04-30T06:19:48.199Z,7.63
2018-04-30T06:22:21.591Z,7.57
2018-04-30T06:24:55.278Z,7.27
2018-04-30T06:27:27.940Z,8.00
2018-04-30T06:30:00.537Z,7.40
2018-04-30T06:32:33.177Z,7.93
2018-04-30T06:35:05.777Z,8.00
2018-04-30T06:37:38.408Z,7.90
2018-04-30T06:40:11.007Z,7.47
2018-04-30T06:42:43.623Z,7.60
2018-04-30T06:45:16.224Z,7.60
2018-04-30T06:47:48.847Z,7.93
2018-04-30T06:50:21.482Z,8.27
2018-04-30T06:52:54.095Z,7.67
2018-04-30T06:55:26.696Z,8.57
2018-04-30T06:57:59.344Z,8.30
2018-04-30T07:00:31.943Z,7.83
2018-04-30T07:03:04.631Z,7.60
2018-04-30T07:05:37.235Z,8.13
2018-04-30T07:08:09.850Z,8.23
2018-04-30T07:10:42.455Z,8.30
2018-04-30T07:13:15.835Z,7.70
2018-04-30T07:15:48.429Z,7.80
2018-04-30T07:18:21.048Z,7.73
2018-04-30T07:20:53.652Z,7.90
2018-04-30T07:23:27.038Z,7.70
2018-04-30T07:25:59.684Z,7.53
2018-04-30T07:28:32.316Z,7.37
2018-04-30T07:31:04.926Z,7.60
2018-04-30T07:33:37.561Z,6.83
2018-04-30T07:36:10.163Z,7.67
2018-04-30T07:38:42.779Z,7.57
2018-04-30T07:41:15.396Z,7.13
2018-04-30T07:43:48.019Z,7.57
2018-04-30T07:46:20.618Z,8.10
2018-04-30T07:48:53.243Z,7.27
2018-04-30T07:51:25.838Z,7.93
2018-04-30T07:53:58.465Z,7.70
2018-04-30T07:56:31.071Z,7.60
2018-04-30T07:59:03.699Z,7.37
2018-04-30T08:01:36.322Z,8.10
2018-04-30T08:04:08.964Z,7.30
2018-04-30T08:06:41.585Z,7.57
2018-04-30T08:09:15.035Z,7.17
2018-04-30T08:11:48.385Z,8.17
2018-04-30T08:14:21.028Z,7.53
2018-04-30T08:16:53.619Z,7.63
2018-04-30T08:19:26.238Z,7.67
2018-04-30T08:21:58.844Z,7.30
2018-04-30T08:24:31.462Z,7.43
2018-04-30T08:27:04.072Z,7.17
2018-04-30T08:29:36.699Z,7.57
2018-04-30T08:32:09.339Z,7.30
2018-04-30T08:34:42.728Z,7.33
2018-04-30T08:37:15.329Z,7.30
2018-04-30T08:39:47.943Z,7.40
2018-04-30T08:42:21.319Z,7.67
2018-04-30T08:44:53.944Z,7.47
2018-04-30T08:47:26.571Z,7.40
2018-04-30T08:49:59.207Z,7.80
2018-04-30T08:52:31.823Z,7.63
2018-04-30T08:55:04.451Z,7.10
2018-04-30T08:57:38.971Z,8.17
2018-04-30T09:00:11.599Z,7.87
2018-04-30T09:02:44.202Z,7.90
2018-04-30T09:05:16.819Z,8.37
2018-04-30T09:07:50.210Z,7.57
2018-04-30T09:10:22.847Z,8.83
2018-04-30T09:12:55.447Z,8.00
2018-04-30T09:15:28.093Z,8.23
2018-04-30T09:18:00.692Z,8.33
2018-04-30T09:20:34.095Z,8.60
2018-04-30T09:23:07.459Z,7.93
2018-04-30T09:25:40.075Z,7.97
2018-04-30T09:28:12.732Z,8.30
2018-04-30T09:30:45.303Z,8.70
2018-04-30T09:33:17.916Z,8.20
2018-04-30T09:35:50.595Z,7.93
2018-04-30T09:38:23.328Z,9.07
2018-04-30T09:40:55.955Z,8.60
2018-04-30T09:43:29.315Z,9.23
2018-04-30T09:46:01.936Z,8.47
2018-04-30T09:48:34.548Z,9.10
2018-04-30T09:51:07.936Z,8.27
2018-04-30T09:53:40.535Z,9.30
2018-04-30T09:56:13.933Z,8.57
2018-04-30T09:58:46.548Z,8.40
2018-04-30T10:01:19.260Z,9.97
2018-04-30T10:03:53.829Z,8.97
2018-04-30T10:06:26.789Z,8.17
2018-04-30T10:08:59.386Z,8.77
2018-04-30T10:11:31.999Z,8.70
2018-04-30T10:14:04.604Z,9.30
2018-04-30T10:16:37.231Z,9.07
2018-04-30T10:19:09.830Z,10.00
2018-04-30T10:21:43.264Z,9.97
2018-04-30T10:24:15.886Z,10.17
2018-04-30T10:26:48.494Z,8.87
2018-04-30T10:29:21.094Z,9.87
2018-04-30T10:31:53.709Z,9.80
2018-04-30T10:34:27.073Z,10.67
2018-04-30T10:36:59.715Z,10.83
2018-04-30T10:39:32.314Z,10.10
2018-04-30T10:42:04.931Z,9.80
2018-04-30T10:44:37.536Z,9.77
2018-04-30T10:47:10.159Z,10.50
2018-04-30T10:49:42.759Z,9.90
2018-04-30T10:52:16.147Z,9.70
2018-04-30T10:54:48.783Z,10.37
2018-04-30T10:57:21.378Z,10.10
2018-04-30T10:59:54.010Z,10.37
2018-04-30T11:02:27.595Z,11.43
2018-04-30T11:05:00.219Z,10.60
2018-04-30T11:07:32.824Z,10.43
2018-04-30T11:10:05.458Z,11.13
2018-04-30T11:12:38.063Z,12.53
2018-04-30T11:15:10.698Z,12.23
2018-04-30T11:17:43.307Z,12.63
2018-04-30T11:20:15.942Z,13.03
2018-04-30T11:22:48.616Z,11.23
2018-04-30T11:25:21.235Z,8.60
2018-04-30T11:27:57.796Z,8.40
2018-04-30T11:30:30.456Z,6.63
2018-04-30T11:33:03.062Z,6.80
2018-04-30T11:35:35.695Z,5.93
2018-04-30T11:38:08.300Z,5.93
2018-04-30T11:40:40.998Z,6.13
2018-04-30T11:43:13.612Z,5.07
2018-04-30T11:45:46.255Z,5.00
2018-04-30T11:48:18.872Z,5.50
2018-04-30T11:50:51.517Z,5.40
2018-04-30T11:53:24.136Z,5.27
2018-04-30T11:55:56.784Z,4.87
2018-04-30T11:58:29.399Z,4.17
2018-04-30T12:01:02.071Z,3.70
2018-04-30T12:03:34.754Z,4.70
2018-04-30T12:06:07.395Z,3.80
2018-04-30T12:08:40.028Z,3.23
2018-04-30T12:11:12.678Z,3.23
2018-04-30T12:13:45.320Z,3.43
2018-04-30T12:16:17.966Z,3.40
2018-04-30T12:18:50.583Z,2.50
2018-04-30T12:21:23.970Z,2.90
2018-04-30T12:23:56.580Z,3.10
2018-04-30T12:26:29.203Z,2.40
2018-04-30T12:29:01.811Z,2.57
2018-04-30T12:31:34.440Z,2.10
2018-04-30T12:34:07.049Z,2.10
2018-04-30T12:36:40.448Z,2.37
2018-04-30T12:39:13.048Z,2.20
2018-04-30T12:41:46.685Z,2.40
2018-04-30T12:44:19.299Z,1.93
2018-04-30T12:46:51.928Z,1.83
2018-04-30T12:49:24.559Z,1.77
2018-04-30T12:51:57.223Z,2.33
2018-04-30T12:54:29.835Z,2.00
2018-04-30T12:57:02.482Z,1.80
2018-04-30T12:59:35.119Z,1.57
2018-04-30T13:02:07.755Z,1.83
2018-04-30T13:04:40.364Z,1.87
2018-04-30T13:07:13.006Z,1.97
2018-04-30T13:09:45.621Z,1.77
2018-04-30T13:12:18.255Z,1.60
2018-04-30T13:14:50.858Z,1.63
2018-04-30T13:17:24.278Z,1.80
2018-04-30T13:19:56.884Z,1.70
2018-04-30T13:22:30.269Z,1.50
2018-04-30T13:25:02.862Z,1.40
2018-04-30T13:27:35.480Z,1.80
2018-04-30T13:30:08.071Z,1.50
2018-04-30T13:32:40.683Z,1.43
2018-04-30T13:35:13.268Z,1.50
2018-04-30T13:37:45.880Z,1.60
2018-04-30T13:40:18.470Z,1.33
2018-04-30T13:42:51.075Z,1.67
2018-04-30T13:45:23.666Z,1.90
2018-04-30T13:47:56.291Z,1.43
2018-04-30T13:50:29.648Z,1.40
2018-04-30T13:53:02.254Z,1.77
2018-04-30T13:55:34.856Z,0.90
2018-04-30T13:58:07.475Z,1.00
2018-04-30T14:00:40.081Z,1.00
2018-04-30T14:03:12.703Z,1.30
2018-04-30T14:05:45.311Z,1.20
2018-04-30T14:08:17.923Z,1.00
2018-04-30T14:10:50.521Z,1.30
2018-04-30T14:13:23.916Z,1.13
2018-04-30T14:15:56.546Z,1.30
2018-04-30T14:18:29.944Z,0.90
2018-04-30T14:21:03.320Z,1.40
2018-04-30T14:23:35.951Z,1.30
2018-04-30T14:26:09.336Z,1.30
2018-04-30T14:28:41.943Z,1.20
2018-04-30T14:31:15.322Z,0.90
2018-04-30T14:33:47.938Z,0.90
2018-04-30T14:36:20.531Z,1.60
2018-04-30T14:38:53.909Z,1.10
2018-04-30T14:41:26.502Z,1.00
2018-04-30T14:43:59.152Z,0.80
2018-04-30T14:46:31.744Z,0.80
2018-04-30T14:49:04.356Z,0.90
2018-04-30T14:51:36.972Z,1.00
2018-04-30T14:54:09.601Z,0.80
2018-04-30T14:56:43.024Z,0.90
2018-04-30T14:59:15.605Z,0.70
2018-04-30T15:01:48.204Z,0.57
2018-04-30T15:04:20.913Z,0.80
2018-04-30T15:06:53.455Z,1.00
2018-04-30T15:09:26.077Z,0.60
2018-04-30T15:11:58.670Z,0.70
2018-04-30T15:14:31.298Z,1.03
2018-04-30T15:17:03.926Z,0.40
2018-04-30T15:19:36.542Z,0.50
2018-04-30T15:22:09.165Z,0.70
2018-04-30T15:24:41.759Z,0.87
2018-04-30T15:27:14.379Z,0.40
2018-04-30T15:29:46.971Z,0.60
2018-04-30T15:32:19.594Z,1.00
2018-04-30T15:34:52.183Z,0.80
2018-04-30T15:37:24.790Z,0.80
2018-04-30T15:39:57.433Z,0.50
2018-04-30T15:42:30.074Z,0.60
2018-04-30T15:45:02.672Z,0.47
2018-04-30T15:47:35.285Z,0.60
2018-04-30T15:50:07.884Z,0.40
2018-04-30T15:52:40.510Z,0.53
2018-04-30T15:55:13.889Z,0.90
2018-04-30T15:57:46.500Z,0.40
2018-04-30T16:00:19.863Z,0.50
2018-04-30T16:02:52.474Z,0.70
2018-04-30T16:05:25.080Z,0.60
2018-04-30T16:07:57.688Z,0.70
2018-04-30T16:10:31.061Z,0.73
2018-04-30T16:13:03.675Z,0.40
2018-04-30T16:15:36.272Z,0.43
2018-04-30T16:18:08.883Z,0.47
2018-04-30T16:20:42.236Z,0.63
2018-04-30T16:23:14.846Z,0.63
2018-04-30T16:25:47.431Z,0.53
2018-04-30T16:28:20.047Z,0.80
2018-04-30T16:30:53.404Z,0.53
2018-04-30T16:33:26.024Z,0.80
2018-04-30T16:35:58.650Z,0.50
2018-04-30T16:38:31.304Z,0.60
2018-04-30T16:41:03.912Z,0.60
2018-04-30T16:43:36.532Z,0.60
2018-04-30T16:46:09.163Z,0.63
2018-04-30T16:48:41.770Z,0.40
2018-04-30T16:51:19.057Z,0.67
2018-04-30T16:53:51.766Z,0.63
2018-04-30T16:56:25.599Z,0.60
2018-04-30T16:58:58.235Z,0.77
2018-04-30T17:01:30.887Z,0.60
2018-04-30T17:04:03.503Z,0.83
2018-04-30T17:06:36.091Z,0.77
2018-04-30T17:09:09.469Z,0.70
2018-04-30T17:11:42.059Z,0.70
2018-04-30T17:14:14.687Z,0.50
2018-04-30T17:16:48.057Z,0.90
2018-04-30T17:19:20.679Z,0.70
2018-04-30T17:21:54.047Z,0.77
2018-04-30T17:24:26.673Z,0.80
2018-04-30T17:26:59.287Z,0.80
2018-04-30T17:29:31.895Z,0.60
2018-04-30T17:32:04.491Z,0.77
2018-04-30T17:34:37.107Z,0.70
2018-04-30T17:37:09.702Z,0.70
2018-04-30T17:39:42.333Z,1.00
2018-04-30T17:42:15.711Z,0.90
2018-04-30T17:44:48.329Z,0.80
2018-04-30T17:47:21.700Z,0.70
2018-04-30T17:49:54.333Z,0.67
2018-04-30T17:52:26.946Z,0.80
2018-04-30T17:54:59.585Z,0.60
2018-04-30T17:57:32.186Z,0.70
2018-04-30T18:00:05.107Z,0.70
2018-04-30T18:02:37.711Z,0.50
2018-04-30T18:05:10.333Z,0.90
2018-04-30T18:07:42.989Z,0.80
2018-04-30T18:10:16.360Z,0.87
2018-04-30T18:12:49.070Z,0.97
2018-04-30T18:15:21.625Z,0.63
2018-04-30T18:17:54.230Z,0.60
2018-04-30T18:20:26.843Z,1.40
2018-04-30T18:23:00.213Z,1.30
2018-04-30T18:25:32.843Z,1.40
2018-04-30T18:28:05.432Z,1.67
2018-04-30T18:30:39.861Z,1.40
2018-04-30T18:33:12.517Z,1.33
2018-04-30T18:35:45.144Z,1.60
2018-04-30T18:38:18.555Z,2.00
2018-04-30T18:40:51.250Z,1.47
2018-04-30T18:43:23.903Z,1.50
2018-04-30T18:45:56.534Z,1.73
2018-04-30T18:48:30.095Z,1.70
2018-04-30T18:51:02.891Z,2.60
2018-04-30T18:53:35.496Z,3.30
2018-04-30T18:56:08.111Z,2.50
2018-04-30T18:58:40.724Z,2.73
2018-04-30T19:01:14.135Z,2.57
2018-04-30T19:03:47.503Z,2.70
2018-04-30T19:06:20.144Z,2.47
2018-04-30T19:08:53.498Z,1.93
2018-04-30T19:11:26.169Z,2.40
2018-04-30T19:13:58.941Z,1.93
2018-04-30T19:16:31.650Z,1.60
2018-04-30T19:19:04.269Z,1.57
2018-04-30T19:21:36.898Z,1.90
2018-04-30T19:24:09.515Z,2.33
2018-04-30T19:26:42.130Z,2.00
2018-04-30T19:29:15.527Z,1.80
2018-04-30T19:31:48.197Z,1.30
2018-04-30T19:34:20.774Z,1.20
2018-04-30T19:36:54.140Z,1.07
2018-04-30T19:39:26.759Z,1.10
2018-04-30T19:41:59.363Z,1.57
2018-04-30T19:44:32.766Z,1.50
2018-04-30T19:47:06.176Z,1.33
2018-04-30T19:49:38.851Z,1.77
2018-04-30T19:52:11.455Z,1.73
2018-04-30T19:54:44.139Z,1.00
2018-04-30T19:57:16.770Z,1.40
2018-04-30T19:59:50.236Z,1.73
2018-04-30T20:02:22.899Z,0.90
2018-04-30T20:04:55.577Z,1.30
2018-04-30T20:07:28.220Z,1.40
2018-04-30T20:10:00.861Z,1.00
2018-04-30T20:12:33.513Z,1.33
2018-04-30T20:15:06.174Z,1.40
2018-04-30T20:17:38.799Z,1.50
2018-04-30T20:20:11.402Z,1.40
2018-04-30T20:22:44.768Z,1.50
2018-04-30T20:25:17.415Z,1.57
2018-04-30T20:27:50.778Z,2.20
2018-04-30T20:30:23.394Z,1.50
2018-04-30T20:32:56.036Z,1.50
2018-04-30T20:35:28.659Z,1.80
2018-04-30T20:38:01.327Z,1.60
2018-04-30T20:40:33.936Z,1.80
2018-04-30T20:43:11.490Z,1.90
2018-04-30T20:45:44.883Z,1.50
2018-04-30T20:48:17.490Z,2.23
2018-04-30T20:50:50.109Z,2.70
2018-04-30T20:53:22.698Z,4.37
2018-04-30T20:55:55.332Z,3.60
2018-04-30T20:58:27.927Z,3.23
2018-04-30T21:01:00.555Z,2.33
2018-04-30T21:03:33.153Z,2.90
2018-04-30T21:06:05.783Z,2.60
2018-04-30T21:08:50.275Z,2.80
2018-04-30T21:11:22.903Z,3.40
2018-04-30T21:13:55.496Z,2.83
2018-04-30T21:16:28.133Z,2.30
2018-04-30T21:19:00.738Z,3.33
2018-04-30T21:21:33.367Z,3.37
2018-04-30T21:24:05.958Z,3.37
2018-04-30T21:26:38.596Z,3.07
2018-04-30T21:29:11.256Z,3.17
2018-04-30T21:31:43.905Z,2.97
2018-04-30T21:34:17.291Z,3.00
2018-04-30T21:36:49.934Z,3.73
2018-04-30T21:39:22.523Z,4.47
2018-04-30T21:41:55.147Z,3.50
2018-04-30T21:44:27.769Z,3.60
2018-04-30T21:47:00.405Z,3.80
2018-04-30T21:49:33.025Z,3.50
2018-04-30T21:52:05.646Z,3.53
2018-04-30T21:54:38.256Z,3.40
2018-04-30T21:57:11.668Z,3.30
2018-04-30T21:59:45.044Z,2.97
2018-04-30T22:02:17.692Z,3.77
2018-04-30T22:04:50.292Z,3.40
2018-04-30T22:07:22.913Z,3.67
2018-04-30T22:09:55.504Z,3.27
2018-04-30T22:12:28.399Z,3.93
2018-04-30T22:15:01.078Z,3.87
2018-04-30T22:17:33.712Z,3.23
2018-04-30T22:20:06.303Z,3.60
2018-04-30T22:22:38.926Z,3.30
2018-04-30T22:25:11.531Z,3.30
2018-04-30T22:27:44.167Z,3.60
2018-04-30T22:30:16.916Z,3.30
2018-04-30T22:32:49.559Z,3.30
2018-04-30T22:35:22.168Z,3.70
2018-04-30T22:37:55.571Z,3.37
2018-04-30T22:40:28.941Z,3.13
2018-04-30T22:43:01.581Z,3.50
2018-04-30T22:45:34.947Z,3.70
2018-04-30T22:48:07.573Z,3.40
2018-04-30T22:50:40.946Z,3.70
2018-04-30T22:53:13.589Z,3.53
2018-04-30T22:55:46.191Z,3.93
2018-04-30T22:58:18.895Z,3.90
2018-04-30T23:00:51.482Z,4.30
2018-04-30T23:03:24.091Z,4.13
2018-04-30T23:05:56.763Z,3.97
2018-04-30T23:08:29.382Z,3.70
2018-04-30T23:11:01.990Z,4.13
2018-04-30T23:13:34.667Z,3.60
2018-04-30T23:16:07.311Z,3.47
2018-04-30T23:18:39.919Z,3.77
2018-04-30T23:21:12.572Z,2.90
2018-04-30T23:23:45.211Z,3.00
2018-04-30T23:26:17.803Z,3.10
2018-04-30T23:28:50.434Z,3.10
2018-04-30T23:31:23.025Z,3.20
2018-04-30T23:33:55.744Z,3.80
2018-04-30T23:36:29.116Z,3.50
2018-04-30T23:39:01.734Z,3.20
2018-04-30T23:41:34.322Z,3.33
2018-04-30T23:44:07.165Z,3.60
2018-04-30T23:46:39.756Z,3.70
2018-04-30T23:49:12.386Z,3.83
2018-04-30T23:51:45.002Z,3.60
2018-04-30T23:54:17.627Z,3.30
2018-04-30T23:56:50.239Z,3.80
2018-04-30T23:59:22.894Z,3.70
